KHKS/HKS METAR and TAF weather

Enter ICAO airport designator
Station Type Date Time Source
KHKS METAR 2021/05/14 11:53 UTC NOAA

KHKS 141153Z 00000KT 10SM CLR 12/10 A3024 RMK AO2 SLP234 T01220100 10150 20111 53006


Station Type Date Time Source
KHKS Decoded METAR 2021/05/14 11:53 UTC NOAA

HAWKINS FIELD, MS, United States (KHKS) 32-20N 090-13W 108M
May 14, 2021 - 07:53 AM EDT / 2021.05.14 1153 UTC
Wind: Calm:0
Visibility: 10 mile(s):0
Sky conditions: clear
Temperature: 54.0 F (12.2 C)
Dew Point: 50.0 F (10.0 C)
Relative Humidity: 86%
Pressure (altimeter): 30.24 in. Hg (1024 hPa)
Pressure tendency: 0.02 inches (0.6 hPa) higher than three hours ago
ob: KHKS 141153Z 00000KT 10SM CLR 12/10 A3024 RMK AO2 SLP234 T01220100 10150 20111 53006
cycle: 12

Station Type Date Time Source
KHKS TAF 2021/05/14 12:22 UTC NOAA

TAF KHKS 141120Z 1412/1512 04005KT P6SM SKC

Example: see airport list